sensor_id;sensor_type;location;lat;lon;timestamp;P1;durP1;ratioP1;P2;durP2;ratioP2
84140;SDS011;74257;52.540;13.416;2023-11-21T00:00:19;3.05;;;1.30;;
84140;SDS011;74257;52.540;13.416;2023-11-21T00:03:05;3.92;;;1.90;;
84140;SDS011;74257;52.540;13.416;2023-11-21T00:05:32;3.25;;;1.40;;
84140;SDS011;74257;52.540;13.416;2023-11-21T00:07:58;3.70;;;1.60;;
84140;SDS011;74257;52.540;13.416;2023-11-21T00:10:24;5.25;;;1.63;;
84140;SDS011;74257;52.540;13.416;2023-11-21T00:12:49;3.10;;;1.50;;
84140;SDS011;74257;52.540;13.416;2023-11-21T00:15:15;4.40;;;1.83;;
84140;SDS011;74257;52.540;13.416;2023-11-21T00:17:41;3.10;;;1.50;;
84140;SDS011;74257;52.540;13.416;2023-11-21T00:20:08;4.22;;;1.65;;
84140;SDS011;74257;52.540;13.416;2023-11-21T00:22:37;3.67;;;1.98;;
84140;SDS011;74257;52.540;13.416;2023-11-21T00:25:03;4.18;;;1.60;;
84140;SDS011;74257;52.540;13.416;2023-11-21T00:27:30;4.80;;;1.58;;
84140;SDS011;74257;52.540;13.416;2023-11-21T00:29:56;3.70;;;1.67;;
84140;SDS011;74257;52.540;13.416;2023-11-21T00:32:21;3.65;;;1.45;;
84140;SDS011;74257;52.540;13.416;2023-11-21T00:34:47;3.92;;;1.77;;
84140;SDS011;74257;52.540;13.416;2023-11-21T00:37:14;4.22;;;1.60;;
84140;SDS011;74257;52.540;13.416;2023-11-21T00:39:40;2.88;;;1.60;;
84140;SDS011;74257;52.540;13.416;2023-11-21T00:42:05;2.92;;;1.80;;
84140;SDS011;74257;52.540;13.416;2023-11-21T00:44:31;3.55;;;1.60;;
84140;SDS011;74257;52.540;13.416;2023-11-21T00:46:57;3.47;;;1.60;;
84140;SDS011;74257;52.540;13.416;2023-11-21T00:49:23;2.72;;;1.58;;
84140;SDS011;74257;52.540;13.416;2023-11-21T00:51:49;2.53;;;1.48;;
84140;SDS011;74257;52.540;13.416;2023-11-21T00:54:14;2.97;;;1.63;;
84140;SDS011;74257;52.540;13.416;2023-11-21T00:56:42;5.15;;;1.80;;
84140;SDS011;74257;52.540;13.416;2023-11-21T00:59:08;3.92;;;1.80;;
84140;SDS011;74257;52.540;13.416;2023-11-21T01:01:34;4.47;;;1.60;;
84140;SDS011;74257;52.540;13.416;2023-11-21T01:04:00;2.75;;;1.67;;
84140;SDS011;74257;52.540;13.416;2023-11-21T01:06:26;2.55;;;1.50;;
84140;SDS011;74257;52.540;13.416;2023-11-21T01:08:52;4.68;;;1.73;;
84140;SDS011;74257;52.540;13.416;2023-11-21T01:11:18;3.53;;;1.60;;
84140;SDS011;74257;52.540;13.416;2023-11-21T01:13:43;2.83;;;1.70;;
84140;SDS011;74257;52.540;13.416;2023-11-21T01:16:10;9.07;;;1.80;;
84140;SDS011;74257;52.540;13.416;2023-11-21T01:18:36;3.25;;;1.42;;
84140;SDS011;74257;52.540;13.416;2023-11-21T01:21:02;5.00;;;1.70;;
84140;SDS011;74257;52.540;13.416;2023-11-21T01:23:28;3.85;;;1.58;;
84140;SDS011;74257;52.540;13.416;2023-11-21T01:25:55;4.40;;;1.80;;
84140;SDS011;74257;52.540;13.416;2023-11-21T01:28:22;2.83;;;1.50;;
84140;SDS011;74257;52.540;13.416;2023-11-21T01:30:48;2.05;;;1.40;;
84140;SDS011;74257;52.540;13.416;2023-11-21T01:33:14;3.10;;;1.50;;
84140;SDS011;74257;52.540;13.416;2023-11-21T01:35:41;2.78;;;1.50;;
84140;SDS011;74257;52.540;13.416;2023-11-21T01:38:07;2.78;;;1.70;;
84140;SDS011;74257;52.540;13.416;2023-11-21T01:40:34;3.75;;;1.70;;
84140;SDS011;74257;52.540;13.416;2023-11-21T01:43:00;2.35;;;1.50;;
84140;SDS011;74257;52.540;13.416;2023-11-21T01:45:29;3.72;;;1.90;;
84140;SDS011;74257;52.540;13.416;2023-11-21T01:47:56;3.80;;;1.80;;
84140;SDS011;74257;52.540;13.416;2023-11-21T01:50:23;4.07;;;1.80;;
84140;SDS011;74257;52.540;13.416;2023-11-21T01:52:50;4.18;;;1.95;;
84140;SDS011;74257;52.540;13.416;2023-11-21T01:55:17;2.35;;;1.33;;
84140;SDS011;74257;52.540;13.416;2023-11-21T01:57:44;2.83;;;1.60;;
84140;SDS011;74257;52.540;13.416;2023-11-21T02:00:11;2.92;;;1.80;;
84140;SDS011;74257;52.540;13.416;2023-11-21T02:02:42;2.72;;;1.60;;
84140;SDS011;74257;52.540;13.416;2023-11-21T02:05:12;2.80;;;1.88;;
84140;SDS011;74257;52.540;13.416;2023-11-21T02:07:40;4.63;;;1.70;;
84140;SDS011;74257;52.540;13.416;2023-11-21T02:10:09;4.43;;;1.90;;
84140;SDS011;74257;52.540;13.416;2023-11-21T02:12:35;3.75;;;1.90;;
84140;SDS011;74257;52.540;13.416;2023-11-21T02:15:02;5.50;;;2.15;;
84140;SDS011;74257;52.540;13.416;2023-11-21T02:17:30;3.53;;;1.73;;
84140;SDS011;74257;52.540;13.416;2023-11-21T02:19:58;3.95;;;1.90;;
84140;SDS011;74257;52.540;13.416;2023-11-21T02:22:25;2.42;;;1.70;;
84140;SDS011;74257;52.540;13.416;2023-11-21T02:24:56;3.00;;;1.88;;
84140;SDS011;74257;52.540;13.416;2023-11-21T02:27:23;3.03;;;1.80;;
84140;SDS011;74257;52.540;13.416;2023-11-21T02:29:49;3.33;;;1.98;;
84140;SDS011;74257;52.540;13.416;2023-11-21T02:32:15;3.92;;;1.90;;
84140;SDS011;74257;52.540;13.416;2023-11-21T02:34:44;3.10;;;2.05;;
84140;SDS011;74257;52.540;13.416;2023-11-21T02:37:10;4.38;;;1.92;;
84140;SDS011;74257;52.540;13.416;2023-11-21T02:39:36;3.97;;;1.75;;
84140;SDS011;74257;52.540;13.416;2023-11-21T02:42:01;2.42;;;1.83;;
84140;SDS011;74257;52.540;13.416;2023-11-21T02:44:27;3.17;;;1.60;;
84140;SDS011;74257;52.540;13.416;2023-11-21T02:46:53;5.50;;;1.80;;
84140;SDS011;74257;52.540;13.416;2023-11-21T02:49:19;2.88;;;1.88;;
84140;SDS011;74257;52.540;13.416;2023-11-21T02:51:45;9.75;;;2.35;;
84140;SDS011;74257;52.540;13.416;2023-11-21T02:54:11;5.07;;;2.10;;
84140;SDS011;74257;52.540;13.416;2023-11-21T02:56:37;3.58;;;2.08;;
84140;SDS011;74257;52.540;13.416;2023-11-21T02:59:03;4.78;;;1.98;;
84140;SDS011;74257;52.540;13.416;2023-11-21T03:01:28;2.78;;;1.80;;
84140;SDS011;74257;52.540;13.416;2023-11-21T03:03:54;3.22;;;1.92;;
84140;SDS011;74257;52.540;13.416;2023-11-21T03:06:21;3.45;;;2.00;;
84140;SDS011;74257;52.540;13.416;2023-11-21T03:08:47;3.10;;;1.80;;
84140;SDS011;74257;52.540;13.416;2023-11-21T03:11:13;4.00;;;1.80;;
84140;SDS011;74257;52.540;13.416;2023-11-21T03:13:40;3.63;;;1.88;;
84140;SDS011;74257;52.540;13.416;2023-11-21T03:16:09;3.05;;;1.80;;
84140;SDS011;74257;52.540;13.416;2023-11-21T03:18:37;3.70;;;2.17;;
84140;SDS011;74257;52.540;13.416;2023-11-21T03:21:03;3.53;;;1.75;;
84140;SDS011;74257;52.540;13.416;2023-11-21T03:23:30;3.60;;;1.90;;
84140;SDS011;74257;52.540;13.416;2023-11-21T03:25:56;3.60;;;2.15;;
84140;SDS011;74257;52.540;13.416;2023-11-21T03:28:23;3.72;;;1.83;;
84140;SDS011;74257;52.540;13.416;2023-11-21T03:30:49;3.38;;;1.88;;
84140;SDS011;74257;52.540;13.416;2023-11-21T03:33:15;4.55;;;2.10;;
84140;SDS011;74257;52.540;13.416;2023-11-21T03:35:40;2.80;;;1.70;;
84140;SDS011;74257;52.540;13.416;2023-11-21T03:38:07;3.10;;;1.80;;
84140;SDS011;74257;52.540;13.416;2023-11-21T03:40:34;4.25;;;2.08;;
84140;SDS011;74257;52.540;13.416;2023-11-21T03:43:01;3.10;;;1.98;;
84140;SDS011;74257;52.540;13.416;2023-11-21T03:45:26;3.35;;;2.10;;
84140;SDS011;74257;52.540;13.416;2023-11-21T03:47:52;3.72;;;2.00;;
84140;SDS011;74257;52.540;13.416;2023-11-21T03:50:18;3.20;;;2.00;;
84140;SDS011;74257;52.540;13.416;2023-11-21T03:52:44;2.45;;;1.70;;
84140;SDS011;74257;52.540;13.416;2023-11-21T03:55:10;3.30;;;1.90;;
84140;SDS011;74257;52.540;13.416;2023-11-21T03:57:36;6.00;;;2.15;;
84140;SDS011;74257;52.540;13.416;2023-11-21T04:00:02;3.30;;;2.00;;
84140;SDS011;74257;52.540;13.416;2023-11-21T04:02:31;3.08;;;1.95;;
84140;SDS011;74257;52.540;13.416;2023-11-21T04:04:56;3.47;;;1.95;;
84140;SDS011;74257;52.540;13.416;2023-11-21T04:07:22;3.50;;;2.20;;
84140;SDS011;74257;52.540;13.416;2023-11-21T04:09:48;3.88;;;2.30;;
84140;SDS011;74257;52.540;13.416;2023-11-21T04:12:14;4.07;;;1.92;;
84140;SDS011;74257;52.540;13.416;2023-11-21T04:14:40;2.97;;;1.85;;
84140;SDS011;74257;52.540;13.416;2023-11-21T04:17:06;3.35;;;1.88;;
84140;SDS011;74257;52.540;13.416;2023-11-21T04:19:32;3.53;;;1.95;;
84140;SDS011;74257;52.540;13.416;2023-11-21T04:21:58;3.28;;;1.90;;
84140;SDS011;74257;52.540;13.416;2023-11-21T04:24:23;3.42;;;2.00;;
84140;SDS011;74257;52.540;13.416;2023-11-21T04:26:49;3.22;;;1.73;;
84140;SDS011;74257;52.540;13.416;2023-11-21T04:29:15;4.30;;;2.10;;
84140;SDS011;74257;52.540;13.416;2023-11-21T04:31:41;3.60;;;2.20;;
84140;SDS011;74257;52.540;13.416;2023-11-21T04:34:06;3.20;;;2.00;;
84140;SDS011;74257;52.540;13.416;2023-11-21T04:36:33;3.33;;;1.90;;
84140;SDS011;74257;52.540;13.416;2023-11-21T04:39:00;3.90;;;2.00;;
84140;SDS011;74257;52.540;13.416;2023-11-21T04:41:26;4.57;;;2.30;;
84140;SDS011;74257;52.540;13.416;2023-11-21T04:43:52;4.07;;;1.88;;
84140;SDS011;74257;52.540;13.416;2023-11-21T04:46:18;3.72;;;2.20;;
84140;SDS011;74257;52.540;13.416;2023-11-21T04:48:43;3.58;;;2.20;;
84140;SDS011;74257;52.540;13.416;2023-11-21T04:51:09;3.78;;;2.35;;
84140;SDS011;74257;52.540;13.416;2023-11-21T04:53:37;3.67;;;2.20;;
84140;SDS011;74257;52.540;13.416;2023-11-21T04:56:05;3.20;;;2.00;;
84140;SDS011;74257;52.540;13.416;2023-11-21T04:58:31;3.25;;;2.00;;
84140;SDS011;74257;52.540;13.416;2023-11-21T05:00:57;3.03;;;2.30;;
84140;SDS011;74257;52.540;13.416;2023-11-21T05:03:22;3.00;;;1.98;;
84140;SDS011;74257;52.540;13.416;2023-11-21T05:05:49;3.55;;;1.70;;
84140;SDS011;74257;52.540;13.416;2023-11-21T05:08:15;3.17;;;1.92;;
84140;SDS011;74257;52.540;13.416;2023-11-21T05:10:40;5.32;;;2.47;;
84140;SDS011;74257;52.540;13.416;2023-11-21T05:13:06;3.50;;;2.20;;
84140;SDS011;74257;52.540;13.416;2023-11-21T05:15:36;4.25;;;1.80;;
84140;SDS011;74257;52.540;13.416;2023-11-21T05:18:03;3.05;;;2.10;;
84140;SDS011;74257;52.540;13.416;2023-11-21T05:20:29;2.53;;;1.90;;
84140;SDS011;74257;52.540;13.416;2023-11-21T05:22:55;3.40;;;2.10;;
84140;SDS011;74257;52.540;13.416;2023-11-21T05:25:20;3.38;;;2.30;;
84140;SDS011;74257;52.540;13.416;2023-11-21T05:27:46;4.07;;;1.98;;
84140;SDS011;74257;52.540;13.416;2023-11-21T05:30:13;3.30;;;2.10;;
84140;SDS011;74257;52.540;13.416;2023-11-21T05:32:39;9.40;;;2.35;;
84140;SDS011;74257;52.540;13.416;2023-11-21T05:35:08;3.63;;;2.08;;
84140;SDS011;74257;52.540;13.416;2023-11-21T05:37:41;2.85;;;1.88;;
84140;SDS011;74257;52.540;13.416;2023-11-21T05:40:07;5.47;;;2.22;;
84140;SDS011;74257;52.540;13.416;2023-11-21T05:42:34;4.57;;;2.03;;
84140;SDS011;74257;52.540;13.416;2023-11-21T05:45:01;3.17;;;1.90;;
84140;SDS011;74257;52.540;13.416;2023-11-21T05:47:37;3.33;;;1.85;;
84140;SDS011;74257;52.540;13.416;2023-11-21T05:50:06;3.53;;;1.88;;
84140;SDS011;74257;52.540;13.416;2023-11-21T05:52:36;3.03;;;1.80;;
84140;SDS011;74257;52.540;13.416;2023-11-21T05:55:03;3.10;;;1.75;;
84140;SDS011;74257;52.540;13.416;2023-11-21T05:57:32;3.63;;;2.17;;
84140;SDS011;74257;52.540;13.416;2023-11-21T05:59:59;3.58;;;2.10;;
84140;SDS011;74257;52.540;13.416;2023-11-21T06:02:24;4.35;;;1.90;;
84140;SDS011;74257;52.540;13.416;2023-11-21T06:04:51;4.28;;;2.10;;
84140;SDS011;74257;52.540;13.416;2023-11-21T06:07:17;4.13;;;2.00;;
84140;SDS011;74257;52.540;13.416;2023-11-21T06:09:42;3.30;;;2.40;;
84140;SDS011;74257;52.540;13.416;2023-11-21T06:12:10;3.45;;;2.00;;
84140;SDS011;74257;52.540;13.416;2023-11-21T06:14:36;5.72;;;2.58;;
84140;SDS011;74257;52.540;13.416;2023-11-21T06:17:02;3.88;;;2.60;;
84140;SDS011;74257;52.540;13.416;2023-11-21T06:19:28;3.97;;;2.17;;
84140;SDS011;74257;52.540;13.416;2023-11-21T06:21:54;5.55;;;2.40;;
84140;SDS011;74257;52.540;13.416;2023-11-21T06:24:19;5.28;;;2.25;;
84140;SDS011;74257;52.540;13.416;2023-11-21T06:26:46;4.72;;;2.60;;
84140;SDS011;74257;52.540;13.416;2023-11-21T06:29:14;4.32;;;2.47;;
84140;SDS011;74257;52.540;13.416;2023-11-21T06:31:39;6.07;;;2.83;;
84140;SDS011;74257;52.540;13.416;2023-11-21T06:34:06;3.92;;;2.15;;
84140;SDS011;74257;52.540;13.416;2023-11-21T06:36:32;4.97;;;2.40;;
84140;SDS011;74257;52.540;13.416;2023-11-21T06:38:58;4.18;;;2.20;;
84140;SDS011;74257;52.540;13.416;2023-11-21T06:41:24;3.80;;;2.20;;
84140;SDS011;74257;52.540;13.416;2023-11-21T06:43:50;3.20;;;2.03;;
84140;SDS011;74257;52.540;13.416;2023-11-21T06:46:15;4.13;;;2.20;;
84140;SDS011;74257;52.540;13.416;2023-11-21T06:48:42;4.05;;;2.08;;
84140;SDS011;74257;52.540;13.416;2023-11-21T06:51:08;5.20;;;2.40;;
84140;SDS011;74257;52.540;13.416;2023-11-21T06:53:35;8.30;;;2.42;;
84140;SDS011;74257;52.540;13.416;2023-11-21T06:56:01;5.78;;;2.55;;
84140;SDS011;74257;52.540;13.416;2023-11-21T06:58:28;7.88;;;2.30;;
84140;SDS011;74257;52.540;13.416;2023-11-21T07:00:54;8.05;;;2.40;;
84140;SDS011;74257;52.540;13.416;2023-11-21T07:03:19;11.25;;;3.10;;
84140;SDS011;74257;52.540;13.416;2023-11-21T07:05:45;7.97;;;3.38;;
84140;SDS011;74257;52.540;13.416;2023-11-21T07:08:11;4.60;;;2.72;;
84140;SDS011;74257;52.540;13.416;2023-11-21T07:10:37;8.77;;;2.28;;
84140;SDS011;74257;52.540;13.416;2023-11-21T07:13:03;5.03;;;2.40;;
84140;SDS011;74257;52.540;13.416;2023-11-21T07:15:30;5.35;;;2.80;;
84140;SDS011;74257;52.540;13.416;2023-11-21T07:17:56;8.60;;;2.85;;
84140;SDS011;74257;52.540;13.416;2023-11-21T07:20:21;6.70;;;2.70;;
84140;SDS011;74257;52.540;13.416;2023-11-21T07:22:47;9.63;;;3.25;;
84140;SDS011;74257;52.540;13.416;2023-11-21T07:25:13;5.75;;;2.85;;
84140;SDS011;74257;52.540;13.416;2023-11-21T07:27:39;6.25;;;3.17;;
84140;SDS011;74257;52.540;13.416;2023-11-21T07:30:05;7.05;;;2.30;;
84140;SDS011;74257;52.540;13.416;2023-11-21T07:32:33;7.70;;;3.00;;
84140;SDS011;74257;52.540;13.416;2023-11-21T07:34:59;8.18;;;2.80;;
84140;SDS011;74257;52.540;13.416;2023-11-21T07:37:27;8.07;;;2.65;;
84140;SDS011;74257;52.540;13.416;2023-11-21T07:39:54;5.05;;;2.50;;
84140;SDS011;74257;52.540;13.416;2023-11-21T07:42:23;3.97;;;2.47;;
84140;SDS011;74257;52.540;13.416;2023-11-21T07:44:49;7.55;;;2.90;;
84140;SDS011;74257;52.540;13.416;2023-11-21T07:47:15;5.43;;;2.50;;
84140;SDS011;74257;52.540;13.416;2023-11-21T07:49:41;6.00;;;2.72;;
84140;SDS011;74257;52.540;13.416;2023-11-21T07:52:09;4.47;;;2.58;;
84140;SDS011;74257;52.540;13.416;2023-11-21T07:54:35;6.28;;;2.70;;
84140;SDS011;74257;52.540;13.416;2023-11-21T07:57:01;7.40;;;2.55;;
84140;SDS011;74257;52.540;13.416;2023-11-21T07:59:29;5.97;;;3.00;;
84140;SDS011;74257;52.540;13.416;2023-11-21T08:01:55;7.22;;;2.95;;
84140;SDS011;74257;52.540;13.416;2023-11-21T08:04:21;3.50;;;2.20;;
84140;SDS011;74257;52.540;13.416;2023-11-21T08:06:47;5.30;;;2.95;;
84140;SDS011;74257;52.540;13.416;2023-11-21T08:09:14;4.28;;;2.45;;
84140;SDS011;74257;52.540;13.416;2023-11-21T08:11:41;6.07;;;2.70;;
84140;SDS011;74257;52.540;13.416;2023-11-21T08:14:07;5.97;;;2.65;;
84140;SDS011;74257;52.540;13.416;2023-11-21T08:16:33;5.85;;;2.92;;
84140;SDS011;74257;52.540;13.416;2023-11-21T08:18:58;5.55;;;2.88;;
84140;SDS011;74257;52.540;13.416;2023-11-21T08:21:24;6.15;;;2.30;;
84140;SDS011;74257;52.540;13.416;2023-11-21T08:23:54;5.15;;;2.50;;
84140;SDS011;74257;52.540;13.416;2023-11-21T08:26:21;5.97;;;2.50;;
84140;SDS011;74257;52.540;13.416;2023-11-21T08:28:47;6.82;;;2.78;;
84140;SDS011;74257;52.540;13.416;2023-11-21T08:31:13;7.53;;;2.58;;
84140;SDS011;74257;52.540;13.416;2023-11-21T08:33:39;5.82;;;2.25;;
84140;SDS011;74257;52.540;13.416;2023-11-21T08:36:06;5.15;;;2.55;;
84140;SDS011;74257;52.540;13.416;2023-11-21T08:38:33;5.90;;;2.60;;
84140;SDS011;74257;52.540;13.416;2023-11-21T08:41:06;7.30;;;2.72;;
84140;SDS011;74257;52.540;13.416;2023-11-21T08:43:35;5.15;;;2.50;;
84140;SDS011;74257;52.540;13.416;2023-11-21T08:46:01;6.45;;;2.75;;
84140;SDS011;74257;52.540;13.416;2023-11-21T08:48:27;3.55;;;2.30;;
84140;SDS011;74257;52.540;13.416;2023-11-21T08:50:55;5.78;;;2.60;;
84140;SDS011;74257;52.540;13.416;2023-11-21T08:53:20;6.05;;;3.17;;
84140;SDS011;74257;52.540;13.416;2023-11-21T08:55:47;5.53;;;2.83;;
84140;SDS011;74257;52.540;13.416;2023-11-21T08:58:13;7.13;;;2.75;;
84140;SDS011;74257;52.540;13.416;2023-11-21T09:00:42;5.70;;;2.58;;
84140;SDS011;74257;52.540;13.416;2023-11-21T09:03:09;8.10;;;3.00;;
84140;SDS011;74257;52.540;13.416;2023-11-21T09:05:37;6.43;;;2.90;;
84140;SDS011;74257;52.540;13.416;2023-11-21T09:08:04;6.50;;;2.70;;
84140;SDS011;74257;52.540;13.416;2023-11-21T09:10:30;8.07;;;3.30;;
84140;SDS011;74257;52.540;13.416;2023-11-21T09:12:56;6.70;;;3.05;;
84140;SDS011;74257;52.540;13.416;2023-11-21T09:15:22;12.25;;;3.00;;
84140;SDS011;74257;52.540;13.416;2023-11-21T09:17:48;7.22;;;3.08;;
84140;SDS011;74257;52.540;13.416;2023-11-21T09:20:14;4.50;;;2.70;;
84140;SDS011;74257;52.540;13.416;2023-11-21T09:22:40;8.27;;;3.38;;
84140;SDS011;74257;52.540;13.416;2023-11-21T09:25:06;9.30;;;3.47;;
84140;SDS011;74257;52.540;13.416;2023-11-21T09:27:33;8.70;;;3.40;;
84140;SDS011;74257;52.540;13.416;2023-11-21T09:30:01;10.27;;;3.75;;
84140;SDS011;74257;52.540;13.416;2023-11-21T09:32:27;13.68;;;4.03;;
84140;SDS011;74257;52.540;13.416;2023-11-21T09:34:53;11.65;;;3.65;;
84140;SDS011;74257;52.540;13.416;2023-11-21T09:37:20;15.48;;;4.40;;
84140;SDS011;74257;52.540;13.416;2023-11-21T09:39:46;12.32;;;3.63;;
84140;SDS011;74257;52.540;13.416;2023-11-21T09:42:17;18.55;;;4.38;;
84140;SDS011;74257;52.540;13.416;2023-11-21T09:44:51;11.68;;;3.78;;
84140;SDS011;74257;52.540;13.416;2023-11-21T09:47:24;9.73;;;3.92;;
84140;SDS011;74257;52.540;13.416;2023-11-21T09:49:50;12.73;;;3.83;;
84140;SDS011;74257;52.540;13.416;2023-11-21T09:52:24;17.98;;;4.93;;
84140;SDS011;74257;52.540;13.416;2023-11-21T09:54:52;15.13;;;4.22;;
84140;SDS011;74257;52.540;13.416;2023-11-21T09:57:19;9.32;;;3.90;;
84140;SDS011;74257;52.540;13.416;2023-11-21T09:59:47;15.32;;;4.20;;
84140;SDS011;74257;52.540;13.416;2023-11-21T10:02:17;13.98;;;4.63;;
84140;SDS011;74257;52.540;13.416;2023-11-21T10:04:44;13.68;;;4.10;;
84140;SDS011;74257;52.540;13.416;2023-11-21T10:07:12;14.93;;;4.25;;
84140;SDS011;74257;52.540;13.416;2023-11-21T10:09:42;11.13;;;3.95;;
84140;SDS011;74257;52.540;13.416;2023-11-21T10:12:08;13.73;;;4.47;;
84140;SDS011;74257;52.540;13.416;2023-11-21T10:14:38;12.30;;;3.83;;
84140;SDS011;74257;52.540;13.416;2023-11-21T10:17:08;11.70;;;3.72;;
84140;SDS011;74257;52.540;13.416;2023-11-21T10:19:38;10.80;;;3.85;;
84140;SDS011;74257;52.540;13.416;2023-11-21T10:22:05;12.75;;;3.58;;
84140;SDS011;74257;52.540;13.416;2023-11-21T10:24:32;17.08;;;4.38;;
84140;SDS011;74257;52.540;13.416;2023-11-21T10:26:58;14.93;;;3.83;;
84140;SDS011;74257;52.540;13.416;2023-11-21T10:29:28;11.52;;;3.85;;
84140;SDS011;74257;52.540;13.416;2023-11-21T10:31:54;15.10;;;4.38;;
84140;SDS011;74257;52.540;13.416;2023-11-21T10:34:23;16.35;;;4.75;;
84140;SDS011;74257;52.540;13.416;2023-11-21T10:36:48;14.02;;;4.38;;
84140;SDS011;74257;52.540;13.416;2023-11-21T10:39:18;11.93;;;4.57;;
84140;SDS011;74257;52.540;13.416;2023-11-21T10:41:49;14.25;;;4.50;;
84140;SDS011;74257;52.540;13.416;2023-11-21T10:44:16;12.25;;;4.30;;
84140;SDS011;74257;52.540;13.416;2023-11-21T10:46:55;14.93;;;4.43;;
84140;SDS011;74257;52.540;13.416;2023-11-21T10:49:23;11.50;;;4.60;;
84140;SDS011;74257;52.540;13.416;2023-11-21T10:51:53;13.73;;;3.88;;
84140;SDS011;74257;52.540;13.416;2023-11-21T10:54:19;8.82;;;3.65;;
84140;SDS011;74257;52.540;13.416;2023-11-21T10:56:46;10.40;;;3.65;;
84140;SDS011;74257;52.540;13.416;2023-11-21T10:59:17;8.65;;;3.70;;
84140;SDS011;74257;52.540;13.416;2023-11-21T11:01:46;8.75;;;3.53;;
84140;SDS011;74257;52.540;13.416;2023-11-21T11:04:18;10.88;;;3.92;;
84140;SDS011;74257;52.540;13.416;2023-11-21T11:06:44;12.55;;;3.70;;
84140;SDS011;74257;52.540;13.416;2023-11-21T11:09:16;10.27;;;3.30;;
84140;SDS011;74257;52.540;13.416;2023-11-21T11:11:43;8.93;;;3.42;;
84140;SDS011;74257;52.540;13.416;2023-11-21T11:14:10;12.10;;;3.78;;
84140;SDS011;74257;52.540;13.416;2023-11-21T11:16:37;8.70;;;3.17;;
84140;SDS011;74257;52.540;13.416;2023-11-21T11:19:09;14.02;;;3.53;;
84140;SDS011;74257;52.540;13.416;2023-11-21T11:21:43;10.00;;;3.10;;
84140;SDS011;74257;52.540;13.416;2023-11-21T11:27:08;9.88;;;3.08;;
84140;SDS011;74257;52.540;13.416;2023-11-21T11:29:52;6.10;;;2.90;;
84140;SDS011;74257;52.540;13.416;2023-11-21T11:32:40;8.63;;;3.42;;
84140;SDS011;74257;52.540;13.416;2023-11-21T11:35:21;6.43;;;3.10;;
84140;SDS011;74257;52.540;13.416;2023-11-21T11:37:52;7.28;;;3.35;;
84140;SDS011;74257;52.540;13.416;2023-11-21T11:40:20;6.30;;;2.60;;
84140;SDS011;74257;52.540;13.416;2023-11-21T11:42:56;4.63;;;2.65;;
84140;SDS011;74257;52.540;13.416;2023-11-21T11:45:34;11.23;;;3.72;;
84140;SDS011;74257;52.540;13.416;2023-11-21T11:48:01;5.95;;;2.80;;
84140;SDS011;74257;52.540;13.416;2023-11-21T11:50:29;10.85;;;3.60;;
84140;SDS011;74257;52.540;13.416;2023-11-21T11:52:55;8.57;;;3.15;;
84140;SDS011;74257;52.540;13.416;2023-11-21T11:55:38;7.80;;;2.50;;
84140;SDS011;74257;52.540;13.416;2023-11-21T11:58:05;8.40;;;2.60;;
84140;SDS011;74257;52.540;13.416;2023-11-21T12:03:03;5.30;;;2.70;;
84140;SDS011;74257;52.540;13.416;2023-11-21T12:05:31;7.47;;;2.70;;
84140;SDS011;74257;52.540;13.416;2023-11-21T12:07:59;6.32;;;2.50;;
84140;SDS011;74257;52.540;13.416;2023-11-21T12:12:55;8.93;;;2.65;;
84140;SDS011;74257;52.540;13.416;2023-11-21T12:15:22;5.45;;;2.63;;
84140;SDS011;74257;52.540;13.416;2023-11-21T12:17:49;6.85;;;2.55;;
84140;SDS011;74257;52.540;13.416;2023-11-21T12:20:18;4.85;;;2.58;;
84140;SDS011;74257;52.540;13.416;2023-11-21T12:22:45;14.85;;;3.17;;
84140;SDS011;74257;52.540;13.416;2023-11-21T12:25:13;7.45;;;3.00;;
84140;SDS011;74257;52.540;13.416;2023-11-21T12:27:42;8.65;;;2.70;;
84140;SDS011;74257;52.540;13.416;2023-11-21T12:30:10;6.40;;;2.53;;
84140;SDS011;74257;52.540;13.416;2023-11-21T12:32:42;8.05;;;3.22;;
84140;SDS011;74257;52.540;13.416;2023-11-21T12:35:09;7.10;;;2.60;;
84140;SDS011;74257;52.540;13.416;2023-11-21T12:37:37;6.80;;;2.60;;
84140;SDS011;74257;52.540;13.416;2023-11-21T12:40:05;11.32;;;3.28;;
84140;SDS011;74257;52.540;13.416;2023-11-21T12:45:09;10.18;;;3.25;;
84140;SDS011;74257;52.540;13.416;2023-11-21T12:47:44;9.77;;;2.90;;
84140;SDS011;74257;52.540;13.416;2023-11-21T12:50:11;14.40;;;3.65;;
84140;SDS011;74257;52.540;13.416;2023-11-21T12:52:40;11.57;;;3.97;;
84140;SDS011;74257;52.540;13.416;2023-11-21T12:55:09;18.38;;;4.25;;
84140;SDS011;74257;52.540;13.416;2023-11-21T13:00:08;16.58;;;4.30;;
84140;SDS011;74257;52.540;13.416;2023-11-21T13:02:50;11.90;;;4.72;;
84140;SDS011;74257;52.540;13.416;2023-11-21T13:07:58;14.43;;;4.18;;
84140;SDS011;74257;52.540;13.416;2023-11-21T13:10:29;13.07;;;4.22;;
84140;SDS011;74257;52.540;13.416;2023-11-21T13:12:59;14.68;;;5.07;;
84140;SDS011;74257;52.540;13.416;2023-11-21T13:15:26;18.88;;;5.05;;
84140;SDS011;74257;52.540;13.416;2023-11-21T13:17:53;13.40;;;5.03;;
84140;SDS011;74257;52.540;13.416;2023-11-21T13:20:20;10.75;;;4.07;;
84140;SDS011;74257;52.540;13.416;2023-11-21T13:22:46;14.75;;;4.63;;
84140;SDS011;74257;52.540;13.416;2023-11-21T13:25:22;11.63;;;4.22;;
84140;SDS011;74257;52.540;13.416;2023-11-21T13:27:49;15.70;;;4.78;;
84140;SDS011;74257;52.540;13.416;2023-11-21T13:30:15;10.82;;;4.15;;
84140;SDS011;74257;52.540;13.416;2023-11-21T13:32:44;13.98;;;4.55;;
84140;SDS011;74257;52.540;13.416;2023-11-21T13:35:17;8.80;;;3.95;;
84140;SDS011;74257;52.540;13.416;2023-11-21T13:37:49;17.83;;;4.88;;
84140;SDS011;74257;52.540;13.416;2023-11-21T13:40:21;13.55;;;4.63;;
84140;SDS011;74257;52.540;13.416;2023-11-21T13:42:54;17.67;;;4.63;;
84140;SDS011;74257;52.540;13.416;2023-11-21T13:45:24;11.70;;;4.20;;
84140;SDS011;74257;52.540;13.416;2023-11-21T13:47:52;15.02;;;3.92;;
84140;SDS011;74257;52.540;13.416;2023-11-21T13:50:25;13.70;;;4.53;;
84140;SDS011;74257;52.540;13.416;2023-11-21T13:53:00;14.73;;;4.28;;
84140;SDS011;74257;52.540;13.416;2023-11-21T13:55:34;13.48;;;4.60;;
84140;SDS011;74257;52.540;13.416;2023-11-21T13:58:01;15.00;;;4.53;;
84140;SDS011;74257;52.540;13.416;2023-11-21T14:00:29;13.00;;;3.97;;
84140;SDS011;74257;52.540;13.416;2023-11-21T14:03:09;10.95;;;4.00;;
84140;SDS011;74257;52.540;13.416;2023-11-21T14:05:43;13.77;;;4.32;;
84140;SDS011;74257;52.540;13.416;2023-11-21T14:08:09;11.00;;;4.07;;
84140;SDS011;74257;52.540;13.416;2023-11-21T14:10:37;8.98;;;3.80;;
84140;SDS011;74257;52.540;13.416;2023-11-21T14:13:08;8.57;;;3.58;;
84140;SDS011;74257;52.540;13.416;2023-11-21T14:15:36;11.07;;;4.03;;
84140;SDS011;74257;52.540;13.416;2023-11-21T14:18:09;11.18;;;3.53;;
84140;SDS011;74257;52.540;13.416;2023-11-21T14:20:36;10.68;;;4.10;;
84140;SDS011;74257;52.540;13.416;2023-11-21T14:23:03;12.60;;;3.75;;
84140;SDS011;74257;52.540;13.416;2023-11-21T14:25:31;11.23;;;3.60;;
84140;SDS011;74257;52.540;13.416;2023-11-21T14:27:58;9.45;;;3.85;;
84140;SDS011;74257;52.540;13.416;2023-11-21T14:30:24;11.93;;;3.45;;
84140;SDS011;74257;52.540;13.416;2023-11-21T14:32:51;7.43;;;3.85;;
84140;SDS011;74257;52.540;13.416;2023-11-21T14:35:17;11.35;;;3.63;;
84140;SDS011;74257;52.540;13.416;2023-11-21T14:37:43;8.57;;;3.33;;
84140;SDS011;74257;52.540;13.416;2023-11-21T14:40:09;12.95;;;3.97;;
84140;SDS011;74257;52.540;13.416;2023-11-21T14:42:35;11.82;;;4.28;;
84140;SDS011;74257;52.540;13.416;2023-11-21T14:45:04;8.05;;;3.63;;
84140;SDS011;74257;52.540;13.416;2023-11-21T14:47:32;10.18;;;3.90;;